Time;durP1;ratioP1;P1;durP2;ratioP2;P2;SDS_P1;SDS_P2;PMS_P1;PMS_P2;Temp;Humidity;BMP_temperature;BMP_pressure;BME280_temperature;BME280_humidity;BME280_pressure;Samples;Min_cycle;Max_cycle;Signal;HPM_P1;HPM_P2
2023/07/15 00:02:08;;;;;;;4.43;2.33;;;22.40;75.30;;;;;;5111165;28;20134;-77
2023/07/15 00:04:34;;;;;;;6.07;2.72;;;22.40;75.10;;;;;;5113956;28;20031;-78
2023/07/15 00:07:00;;;;;;;6.05;2.47;;;22.40;75.00;;;;;;5107097;28;20054;-77
2023/07/15 00:09:29;;;;;;;4.82;2.30;;;22.60;73.50;;;;;;5116112;28;20070;-77
2023/07/15 00:11:56;;;;;;;4.70;2.00;;;22.70;72.90;;;;;;5117464;28;20361;-77
2023/07/15 00:14:23;;;;;;;5.10;2.00;;;22.80;72.20;;;;;;5117278;28;20303;-77
2023/07/15 00:16:50;;;;;;;5.10;2.72;;;22.80;72.20;;;;;;5118250;28;20023;-77
2023/07/15 00:19:20;;;;;;;4.45;2.00;;;22.90;70.60;;;;;;5100637;28;20038;-78
2023/07/15 00:21:46;;;;;;;5.43;2.22;;;23.10;70.50;;;;;;5096516;28;20412;-79
2023/07/15 00:24:15;;;;;;;4.38;2.10;;;23.20;70.20;;;;;;5107187;28;20365;-78
2023/07/15 00:26:41;;;;;;;4.40;1.70;;;23.40;67.60;;;;;;5118070;28;20019;-77
2023/07/15 00:29:10;;;;;;;4.55;2.10;;;23.40;68.00;;;;;;5101904;28;20055;-77
2023/07/15 00:31:36;;;;;;;5.88;2.10;;;23.50;67.70;;;;;;5097488;28;20093;-77
2023/07/15 00:34:02;;;;;;;3.53;1.63;;;23.50;67.10;;;;;;5096565;28;20106;-79
2023/07/15 00:36:31;;;;;;;4.03;1.80;;;23.70;67.00;;;;;;5096351;28;20128;-77
2023/07/15 00:38:56;;;;;;;4.90;1.98;;;23.90;66.20;;;;;;5107013;28;20487;-78
2023/07/15 00:41:28;;;;;;;4.13;2.05;;;24.00;66.20;;;;;;5097546;28;20120;-78
2023/07/15 00:43:58;;;;;;;4.45;1.92;;;24.00;65.90;;;;;;5098515;28;20367;-78
2023/07/15 00:46:56;;;;;;;3.83;1.83;;;24.20;65.30;;;;;;5104448;28;20650;-78
2023/07/15 00:49:39;;;;;;;4.60;1.73;;;24.40;65.00;;;;;;5076131;28;20048;-78
2023/07/15 00:52:19;;;;;;;3.47;1.63;;;24.30;65.00;;;;;;5109083;28;20031;-78
2023/07/15 00:54:48;;;;;;;5.40;1.95;;;24.10;65.70;;;;;;5116716;28;20034;-78
2023/07/15 00:57:17;;;;;;;5.40;1.90;;;24.20;65.40;;;;;;5115152;28;20027;-77
2023/07/15 00:59:44;;;;;;;4.72;1.83;;;24.20;65.20;;;;;;5098981;28;20358;-77
2023/07/15 01:02:11;;;;;;;4.22;1.70;;;24.10;66.50;;;;;;5100000;28;20031;-77
2023/07/15 01:04:36;;;;;;;11.20;2.13;;;23.80;67.30;;;;;;5117295;28;20039;-76
2023/07/15 01:07:05;;;;;;;4.75;2.05;;;23.40;69.30;;;;;;5115575;28;20392;-76
2023/07/15 01:09:33;;;;;;;8.25;2.10;;;23.00;70.10;;;;;;5099707;28;20410;-75
2023/07/15 01:11:59;;;;;;;4.20;1.90;;;22.60;73.50;;;;;;5105670;28;20035;-75
2023/07/15 01:14:27;;;;;;;4.05;1.70;;;22.40;71.20;;;;;;5104168;28;20026;-77
2023/07/15 01:16:53;;;;;;;5.63;1.90;;;22.60;71.10;;;;;;5117029;28;20357;-77
2023/07/15 01:19:19;;;;;;;4.68;2.25;;;22.40;73.10;;;;;;5101431;28;20024;-77
2023/07/15 01:21:50;;;;;;;4.30;2.13;;;22.20;74.60;;;;;;5106800;28;20043;-77
2023/07/15 01:24:17;;;;;;;5.22;2.15;;;21.80;76.60;;;;;;5102462;28;20016;-77
2023/07/15 01:26:42;;;;;;;5.35;2.10;;;21.40;77.50;;;;;;5110745;28;20475;-77
2023/07/15 01:29:08;;;;;;;3.67;1.80;;;21.00;78.90;;;;;;5111934;28;20081;-76
2023/07/15 01:31:34;;;;;;;4.45;1.95;;;20.90;76.60;;;;;;5116629;28;20069;-78
2023/07/15 01:34:00;;;;;;;4.55;2.17;;;20.80;77.80;;;;;;5116326;28;20024;-77
2023/07/15 01:36:26;;;;;;;5.43;1.95;;;20.60;80.80;;;;;;5115118;28;20115;-77
2023/07/15 01:38:52;;;;;;;4.68;1.88;;;20.60;78.20;;;;;;5102277;28;20035;-78
2023/07/15 01:41:17;;;;;;;4.95;1.83;;;20.50;78.30;;;;;;5096526;28;20332;-78
2023/07/15 01:43:43;;;;;;;3.85;1.90;;;20.60;77.50;;;;;;5116763;28;20031;-78
2023/07/15 01:46:09;;;;;;;4.10;2.05;;;20.80;76.30;;;;;;5116686;28;20543;-78
2023/07/15 01:48:36;;;;;;;3.95;1.70;;;20.90;76.30;;;;;;5106636;28;20079;-77
2023/07/15 01:51:01;;;;;;;3.78;1.75;;;21.00;74.50;;;;;;5095099;28;20115;-78
2023/07/15 01:53:30;;;;;;;5.25;2.13;;;21.20;75.20;;;;;;5095067;28;20110;-77
2023/07/15 01:55:55;;;;;;;4.15;2.10;;;21.20;74.70;;;;;;5096154;28;20019;-77
2023/07/15 01:58:21;;;;;;;4.15;1.77;;;21.10;75.00;;;;;;5099859;28;20032;-77
2023/07/15 02:00:48;;;;;;;3.83;1.90;;;21.20;75.20;;;;;;5094987;28;20024;-79
2023/07/15 02:03:13;;;;;;;3.88;1.80;;;21.10;75.70;;;;;;5096139;28;20020;-77
2023/07/15 02:05:39;;;;;;;4.18;2.13;;;21.00;75.40;;;;;;5099160;28;20239;-77
2023/07/15 02:08:05;;;;;;;4.35;2.15;;;21.10;75.50;;;;;;5109142;28;20031;-77
2023/07/15 02:10:31;;;;;;;4.15;2.25;;;21.10;75.30;;;;;;5112906;28;20056;-78
2023/07/15 02:12:56;;;;;;;3.65;1.90;;;20.90;76.90;;;;;;5095984;28;20035;-77
2023/07/15 02:15:22;;;;;;;20.55;2.30;;;20.90;76.20;;;;;;5099395;28;20024;-77
2023/07/15 02:17:47;;;;;;;4.72;2.08;;;20.80;76.10;;;;;;5106266;28;20028;-77
2023/07/15 02:20:13;;;;;;;5.57;1.92;;;20.80;77.40;;;;;;5100199;28;20367;-77
2023/07/15 02:22:40;;;;;;;4.43;2.00;;;20.60;78.60;;;;;;5100101;28;20027;-77
2023/07/15 02:25:06;;;;;;;3.95;2.08;;;20.40;78.70;;;;;;5100111;28;20024;-77
2023/07/15 02:27:32;;;;;;;6.50;2.10;;;20.20;79.20;;;;;;5105372;28;20047;-77
2023/07/15 02:29:58;;;;;;;3.80;1.98;;;20.10;79.60;;;;;;5102261;28;20067;-77
2023/07/15 02:32:40;;;;;;;4.40;1.90;;;20.10;80.20;;;;;;5099960;28;20024;-78
2023/07/15 02:35:10;;;;;;;3.40;1.73;;;20.00;79.20;;;;;;5099021;28;20028;-77
2023/07/15 02:37:37;;;;;;;4.60;1.90;;;20.10;78.60;;;;;;5099862;28;20038;-78
2023/07/15 02:40:04;;;;;;;5.68;2.05;;;20.10;79.40;;;;;;5107469;28;20024;-77
2023/07/15 02:42:33;;;;;;;3.92;1.73;;;20.20;78.30;;;;;;5098898;28;20448;-77
2023/07/15 02:45:00;;;;;;;4.40;1.98;;;20.10;79.20;;;;;;5120053;27;20454;-77
2023/07/15 02:47:25;;;;;;;4.85;2.00;;;20.10;79.70;;;;;;5116344;28;20024;-78
2023/07/15 02:49:51;;;;;;;4.00;1.90;;;20.10;78.40;;;;;;5102192;28;20408;-77
2023/07/15 02:52:16;;;;;;;4.20;1.85;;;20.20;76.90;;;;;;5098414;28;20027;-77
2023/07/15 02:54:42;;;;;;;4.32;2.33;;;20.40;77.10;;;;;;5099510;28;20028;-77
2023/07/15 02:57:07;;;;;;;5.15;2.30;;;20.50;76.00;;;;;;5110528;28;20316;-78
2023/07/15 02:59:34;;;;;;;4.90;2.20;;;20.70;75.40;;;;;;5104037;28;20416;-77
2023/07/15 03:02:00;;;;;;;6.47;2.15;;;20.90;75.10;;;;;;5108598;28;20030;-77
2023/07/15 03:04:26;;;;;;;7.80;2.03;;;21.00;73.90;;;;;;5103631;28;20125;-77
2023/07/15 03:06:55;;;;;;;5.03;2.20;;;21.00;74.60;;;;;;5098196;28;20090;-77
2023/07/15 03:09:21;;;;;;;3.58;2.17;;;21.00;74.60;;;;;;5099032;28;20036;-77
2023/07/15 03:11:46;;;;;;;3.90;1.80;;;21.00;75.00;;;;;;5099889;28;20027;-77
2023/07/15 03:14:12;;;;;;;4.35;2.00;;;21.00;74.40;;;;;;5100136;28;20031;-77
2023/07/15 03:16:37;;;;;;;3.58;1.83;;;21.20;73.50;;;;;;5103048;28;20031;-77
2023/07/15 03:19:03;;;;;;;4.30;2.15;;;21.20;73.90;;;;;;5103346;28;20036;-77
2023/07/15 03:21:29;;;;;;;5.35;2.10;;;21.00;75.10;;;;;;5097839;28;20027;-77
2023/07/15 03:23:54;;;;;;;4.57;2.10;;;21.10;74.40;;;;;;5099095;28;20103;-77
2023/07/15 03:26:20;;;;;;;4.55;2.03;;;21.20;73.70;;;;;;5114084;28;20067;-77
2023/07/15 03:28:46;;;;;;;5.07;2.00;;;21.20;73.40;;;;;;5109288;28;20049;-78
2023/07/15 03:31:11;;;;;;;4.28;2.20;;;21.30;73.40;;;;;;5104127;28;20031;-78
2023/07/15 03:33:37;;;;;;;4.25;2.08;;;21.50;72.80;;;;;;5118899;28;20103;-77
2023/07/15 03:36:03;;;;;;;6.20;2.35;;;21.60;72.60;;;;;;5117974;28;20040;-78
2023/07/15 03:38:29;;;;;;;5.75;2.22;;;21.60;73.00;;;;;;5105811;28;20317;-79
2023/07/15 03:40:55;;;;;;;5.47;2.25;;;21.50;72.70;;;;;;5111658;28;20032;-78
2023/07/15 03:43:20;;;;;;;5.03;2.22;;;21.40;73.10;;;;;;5111479;28;20027;-78
2023/07/15 03:45:46;;;;;;;4.00;2.13;;;21.40;73.50;;;;;;5098529;28;20032;-78
2023/07/15 03:48:12;;;;;;;4.63;2.00;;;21.40;73.70;;;;;;5103988;28;20428;-79
2023/07/15 03:50:37;;;;;;;4.82;1.92;;;21.40;74.10;;;;;;5103941;28;20034;-79
2023/07/15 03:53:03;;;;;;;5.60;2.10;;;21.40;73.70;;;;;;5099703;28;20309;-78
2023/07/15 03:55:29;;;;;;;6.25;2.58;;;21.40;73.70;;;;;;5117806;28;20435;-78
2023/07/15 03:57:55;;;;;;;4.38;2.00;;;21.50;73.80;;;;;;5110502;28;20031;-76
2023/07/15 04:00:21;;;;;;;6.18;2.15;;;21.50;73.80;;;;;;5098366;28;20032;-76
2023/07/15 04:02:53;;;;;;;5.57;2.50;;;21.50;74.10;;;;;;5101362;28;20026;-75
2023/07/15 04:05:18;;;;;;;5.72;2.42;;;21.50;74.20;;;;;;5099435;28;20042;-76
2023/07/15 04:07:44;;;;;;;5.78;2.65;;;21.50;74.40;;;;;;5100452;28;20020;-76
2023/07/15 04:10:11;;;;;;;5.03;2.40;;;21.40;74.80;;;;;;5109275;28;20327;-77
2023/07/15 04:12:36;;;;;;;4.53;2.17;;;21.40;75.30;;;;;;5098046;28;20016;-77
2023/07/15 04:15:03;;;;;;;5.40;2.95;;;21.30;75.30;;;;;;5113119;28;20095;-77
2023/07/15 04:17:28;;;;;;;9.68;2.50;;;21.30;75.80;;;;;;5116779;28;20107;-77
2023/07/15 04:19:54;;;;;;;6.05;2.75;;;21.20;75.80;;;;;;5118450;28;20379;-77
2023/07/15 04:22:19;;;;;;;4.25;2.42;;;21.20;75.90;;;;;;5117032;28;20102;-77
2023/07/15 04:24:45;;;;;;;4.68;2.70;;;21.30;75.50;;;;;;5118232;28;20057;-77
2023/07/15 04:27:11;;;;;;;4.55;2.50;;;21.40;75.20;;;;;;5117049;28;20063;-77
2023/07/15 04:29:36;;;;;;;9.95;2.60;;;21.50;74.80;;;;;;5118033;28;20412;-78
2023/07/15 04:32:02;;;;;;;6.05;2.72;;;21.60;74.50;;;;;;5117975;28;20068;-77
2023/07/15 04:34:27;;;;;;;6.97;2.92;;;21.70;73.70;;;;;;5114816;28;20107;-78
2023/07/15 04:36:53;;;;;;;7.38;3.03;;;21.80;73.40;;;;;;5103806;28;20060;-78
2023/07/15 04:39:18;;;;;;;4.22;2.53;;;21.90;73.10;;;;;;5098644;28;20449;-77
2023/07/15 04:41:44;;;;;;;6.78;2.75;;;22.00;73.60;;;;;;5106519;28;20032;-78
2023/07/15 04:44:09;;;;;;;5.82;2.63;;;22.10;72.40;;;;;;5108423;28;20446;-78
2023/07/15 04:46:36;;;;;;;4.70;2.53;;;22.20;72.00;;;;;;5117225;28;20443;-78
2023/07/15 04:49:02;;;;;;;6.47;2.55;;;22.30;71.90;;;;;;5105697;28;20036;-78
2023/07/15 04:51:28;;;;;;;7.88;2.50;;;22.40;72.00;;;;;;5103912;28;20023;-78
2023/07/15 04:53:53;;;;;;;5.28;2.35;;;22.40;72.10;;;;;;5097275;28;20412;-78
2023/07/15 04:56:19;;;;;;;4.72;2.70;;;22.40;72.30;;;;;;5098237;28;20020;-78
2023/07/15 04:58:45;;;;;;;5.32;2.63;;;22.40;72.10;;;;;;5097037;28;20371;-78
2023/07/15 05:01:10;;;;;;;5.07;2.40;;;22.50;72.10;;;;;;5099957;28;20039;-78
2023/07/15 05:03:36;;;;;;;4.70;2.13;;;22.60;72.00;;;;;;5107310;28;20028;-78
2023/07/15 05:06:02;;;;;;;4.10;2.58;;;22.70;72.10;;;;;;5116352;28;20039;-78
2023/07/15 05:08:27;;;;;;;5.88;2.67;;;22.70;72.40;;;;;;5113518;28;20027;-78
2023/07/15 05:10:54;;;;;;;5.25;2.70;;;22.80;73.00;;;;;;5102140;28;20085;-78
2023/07/15 05:13:19;;;;;;;4.57;2.63;;;22.80;72.60;;;;;;5116586;28;20026;-78
2023/07/15 05:15:45;;;;;;;8.35;2.50;;;22.90;72.60;;;;;;5116958;28;20023;-78
2023/07/15 05:18:11;;;;;;;5.30;2.90;;;23.00;72.10;;;;;;5110317;28;20031;-78
2023/07/15 05:20:39;;;;;;;5.18;2.80;;;23.10;72.30;;;;;;5103361;28;20023;-78
2023/07/15 05:23:05;;;;;;;6.05;2.60;;;23.20;72.00;;;;;;5103917;28;20015;-78
2023/07/15 05:25:31;;;;;;;5.22;2.50;;;23.30;72.30;;;;;;5113646;28;20024;-78
2023/07/15 05:27:58;;;;;;;4.30;2.25;;;23.40;72.40;;;;;;5106425;28;20092;-78
2023/07/15 05:30:23;;;;;;;4.53;2.50;;;23.40;71.90;;;;;;5096725;28;20054;-78
2023/07/15 05:32:49;;;;;;;6.18;2.67;;;23.50;72.50;;;;;;5103575;28;20020;-78
2023/07/15 05:35:15;;;;;;;5.63;2.88;;;23.50;72.20;;;;;;5102383;27;20058;-77
2023/07/15 05:37:41;;;;;;;6.07;2.63;;;23.60;72.30;;;;;;5111710;27;20026;-78
2023/07/15 05:40:09;;;;;;;6.72;2.85;;;23.60;72.40;;;;;;5113747;27;20023;-78
2023/07/15 05:42:37;;;;;;;4.80;2.60;;;23.80;72.50;;;;;;5107677;27;20016;-79
2023/07/15 05:45:03;;;;;;;4.50;2.55;;;23.90;71.90;;;;;;5112300;27;20042;-78
2023/07/15 05:47:29;;;;;;;7.60;3.30;;;23.90;73.20;;;;;;5125450;27;20432;-79
2023/07/15 05:49:54;;;;;;;5.20;2.88;;;23.90;72.50;;;;;;5122548;27;20034;-78
2023/07/15 05:52:20;;;;;;;5.57;3.00;;;24.00;71.90;;;;;;5112688;28;20080;-77
2023/07/15 05:54:45;;;;;;;5.40;2.53;;;24.20;71.90;;;;;;5115209;28;20031;-78
2023/07/15 05:57:11;;;;;;;7.78;2.90;;;24.30;72.00;;;;;;5111438;28;20027;-78
2023/07/15 05:59:36;;;;;;;7.15;3.50;;;24.40;71.30;;;;;;5111287;28;20033;-78
2023/07/15 06:02:02;;;;;;;5.20;2.70;;;24.50;71.90;;;;;;5106143;28;20034;-77
2023/07/15 06:04:28;;;;;;;4.75;2.67;;;24.60;72.50;;;;;;5105384;28;20035;-78
2023/07/15 06:06:53;;;;;;;4.85;2.70;;;24.60;71.60;;;;;;5113083;28;20502;-78
2023/07/15 06:09:19;;;;;;;4.80;2.78;;;24.60;71.30;;;;;;5110867;27;20046;-77
2023/07/15 06:11:44;;;;;;;5.72;2.85;;;24.70;71.30;;;;;;5115853;28;20310;-77
2023/07/15 06:14:10;;;;;;;5.45;2.50;;;24.80;71.30;;;;;;5113835;28;20051;-78
2023/07/15 06:16:35;;;;;;;4.38;2.60;;;24.90;71.50;;;;;;5116235;28;20296;-78
2023/07/15 06:19:01;;;;;;;5.25;2.50;;;25.00;70.30;;;;;;5116382;28;20020;-78
2023/07/15 06:21:27;;;;;;;4.72;2.75;;;25.10;70.20;;;;;;5114311;28;20118;-79
2023/07/15 06:23:52;;;;;;;6.72;2.67;;;25.30;70.80;;;;;;5114305;28;20745;-78
2023/07/15 06:26:19;;;;;;;5.20;2.70;;;25.40;70.50;;;;;;5110360;28;20043;-77
2023/07/15 06:28:45;;;;;;;18.58;4.55;;;25.50;69.20;;;;;;5110802;28;20027;-78
2023/07/15 06:31:10;;;;;;;42.28;6.90;;;25.60;69.50;;;;;;5116235;28;20107;-78
2023/07/15 06:33:36;;;;;;;11.15;3.22;;;25.60;69.00;;;;;;5115254;28;20084;-78
2023/07/15 06:36:03;;;;;;;30.95;5.72;;;25.70;69.30;;;;;;5113097;28;20044;-78
2023/07/15 06:38:29;;;;;;;47.97;6.38;;;25.80;68.50;;;;;;5105766;28;20103;-78
2023/07/15 06:40:55;;;;;;;15.80;3.53;;;25.90;68.40;;;;;;5100726;28;20146;-78
2023/07/15 06:43:21;;;;;;;13.00;3.53;;;26.00;69.20;;;;;;5094772;28;20036;-78
2023/07/15 06:45:47;;;;;;;47.72;7.95;;;26.00;69.80;;;;;;5109119;28;20054;-78
2023/07/15 06:48:13;;;;;;;47.50;7.07;;;26.10;68.70;;;;;;5116173;28;20031;-78
2023/07/15 06:50:40;;;;;;;51.10;6.00;;;26.20;69.80;;;;;;5105579;28;20095;-79
2023/07/15 06:53:06;;;;;;;44.40;6.53;;;26.30;68.40;;;;;;5111117;28;20069;-77
2023/07/15 06:55:32;;;;;;;17.50;3.63;;;26.30;68.70;;;;;;5102087;28;20015;-77
2023/07/15 06:57:57;;;;;;;27.35;5.45;;;26.40;68.60;;;;;;5112051;28;20027;-76
2023/07/15 07:00:24;;;;;;;26.77;3.78;;;26.50;68.00;;;;;;5106982;28;20031;-76
2023/07/15 07:02:50;;;;;;;46.40;6.50;;;26.60;67.60;;;;;;5107341;28;20734;-76
2023/07/15 07:05:16;;;;;;;35.78;6.30;;;26.70;67.50;;;;;;5101308;28;20027;-78
2023/07/15 07:07:42;;;;;;;29.42;4.57;;;26.80;66.80;;;;;;5105623;28;20538;-77
2023/07/15 07:10:08;;;;;;;28.85;5.35;;;26.80;67.10;;;;;;5101070;28;20028;-78
2023/07/15 07:12:34;;;;;;;28.00;5.05;;;26.90;67.00;;;;;;5110528;28;20054;-78
2023/07/15 07:14:59;;;;;;;5.85;2.67;;;27.00;66.60;;;;;;5119447;28;20428;-79
2023/07/15 07:17:25;;;;;;;4.85;2.80;;;27.00;67.90;;;;;;5114514;28;20012;-78
2023/07/15 07:19:51;;;;;;;25.92;5.78;;;27.10;67.10;;;;;;5117808;28;20369;-79
2023/07/15 07:22:16;;;;;;;28.45;4.68;;;27.20;67.20;;;;;;5115314;28;20030;-79
2023/07/15 07:24:42;;;;;;;32.97;6.75;;;27.30;66.80;;;;;;5119285;28;20035;-79
2023/07/15 07:27:07;;;;;;;18.02;3.60;;;27.30;67.10;;;;;;5118300;28;20327;-78
2023/07/15 07:29:34;;;;;;;29.33;5.40;;;27.40;67.20;;;;;;5117784;28;20038;-78
2023/07/15 07:31:59;;;;;;;16.95;4.07;;;27.50;67.40;;;;;;5116690;28;20308;-78
2023/07/15 07:34:25;;;;;;;11.82;3.55;;;28.00;65.40;;;;;;5119108;28;20095;-78
2023/07/15 07:36:50;;;;;;;33.17;4.13;;;28.70;65.50;;;;;;5113245;28;20043;-78
2023/07/15 07:39:16;;;;;;;12.52;3.50;;;29.60;63.80;;;;;;5108432;28;20342;-78
2023/07/15 07:41:45;;;;;;;10.05;2.50;;;30.30;61.60;;;;;;5116509;28;20027;-78
2023/07/15 07:44:10;;;;;;;24.67;4.18;;;31.00;60.50;;;;;;5112144;28;20027;-78
2023/07/15 07:46:36;;;;;;;18.00;3.75;;;31.30;60.00;;;;;;5117306;28;20471;-78
2023/07/15 07:49:01;;;;;;;8.85;2.50;;;31.80;59.20;;;;;;5117606;28;20059;-78
2023/07/15 07:51:27;;;;;;;6.80;2.60;;;31.80;57.70;;;;;;5112544;28;20027;-78
2023/07/15 07:53:54;;;;;;;5.28;2.53;;;32.00;57.10;;;;;;5099265;28;20412;-78
2023/07/15 07:56:19;;;;;;;4.30;2.20;;;32.50;57.70;;;;;;5102109;28;20027;-78
2023/07/15 07:58:45;;;;;;;6.72;2.30;;;33.10;55.30;;;;;;5100375;28;20340;-78
2023/07/15 08:01:11;;;;;;;4.22;2.15;;;33.00;56.30;;;;;;5104594;28;20091;-78
2023/07/15 08:03:37;;;;;;;3.70;1.90;;;33.00;56.30;;;;;;5109927;28;20480;-78
2023/07/15 08:06:04;;;;;;;5.65;2.20;;;33.40;56.70;;;;;;5114618;27;20443;-78
2023/07/15 08:08:30;;;;;;;13.50;3.50;;;33.70;55.60;;;;;;5111789;27;20031;-78
2023/07/15 08:10:56;;;;;;;14.50;3.70;;;34.00;54.30;;;;;;5106742;27;20488;-77
2023/07/15 08:13:22;;;;;;;10.35;2.90;;;33.90;54.20;;;;;;5112789;27;20303;-77
2023/07/15 08:15:47;;;;;;;27.48;4.78;;;33.90;54.90;;;;;;5107377;27;20486;-78
2023/07/15 08:18:13;;;;;;;33.20;4.00;;;34.10;55.30;;;;;;5102403;28;20024;-77
2023/07/15 08:20:42;;;;;;;53.05;7.85;;;34.10;53.90;;;;;;5096298;28;20024;-77
2023/07/15 08:23:08;;;;;;;49.25;7.55;;;34.00;54.30;;;;;;5111904;28;20034;-78
2023/07/15 08:25:35;;;;;;;20.92;4.28;;;33.80;53.90;;;;;;5115284;28;20024;-78
2023/07/15 08:28:01;;;;;;;23.10;3.97;;;33.70;55.00;;;;;;5111918;28;20054;-79
2023/07/15 08:30:27;;;;;;;6.30;2.50;;;34.10;55.30;;;;;;5112765;28;20365;-79
2023/07/15 08:32:52;;;;;;;4.63;2.25;;;34.50;53.50;;;;;;5101355;28;20370;-78
2023/07/15 08:35:18;;;;;;;5.15;2.30;;;34.80;54.30;;;;;;5096601;28;20116;-78
2023/07/15 08:37:43;;;;;;;18.85;4.55;;;35.10;54.00;;;;;;5097104;28;20024;-78
2023/07/15 08:40:12;;;;;;;6.90;2.00;;;35.10;53.30;;;;;;5094708;27;20325;-79
2023/07/15 08:42:39;;;;;;;28.63;4.35;;;34.90;52.50;;;;;;5115898;27;20028;-78
2023/07/15 08:45:05;;;;;;;19.80;3.97;;;35.00;54.50;;;;;;5106582;28;20024;-78
2023/07/15 08:47:30;;;;;;;28.40;5.13;;;35.30;52.40;;;;;;5107440;28;20419;-78
2023/07/15 08:50:01;;;;;;;34.13;6.03;;;35.10;53.10;;;;;;5114029;28;20038;-79
2023/07/15 08:52:29;;;;;;;50.33;6.13;;;35.10;52.10;;;;;;5109584;28;20023;-78
2023/07/15 08:54:54;;;;;;;14.82;2.78;;;35.40;51.40;;;;;;5109396;28;20076;-75
2023/07/15 08:57:22;;;;;;;6.72;2.40;;;35.60;53.40;;;;;;5115915;28;20031;-74
2023/07/15 08:59:48;;;;;;;9.45;2.90;;;35.00;52.50;;;;;;5115446;28;20046;-77
2023/07/15 09:02:14;;;;;;;7.50;2.25;;;34.10;54.90;;;;;;5104758;28;20027;-77
2023/07/15 09:04:40;;;;;;;4.50;2.05;;;34.20;55.30;;;;;;5106807;28;20024;-77
2023/07/15 09:07:06;;;;;;;5.65;2.20;;;34.90;53.60;;;;;;5108001;28;20019;-78
2023/07/15 09:09:33;;;;;;;5.15;2.00;;;35.20;51.40;;;;;;5111044;27;20034;-77
2023/07/15 09:12:03;;;;;;;5.65;2.47;;;35.90;49.90;;;;;;5107198;28;20092;-78
2023/07/15 09:14:29;;;;;;;5.45;2.10;;;36.50;50.60;;;;;;5110104;28;20019;-78
2023/07/15 09:16:58;;;;;;;4.05;2.10;;;36.60;50.20;;;;;;5116956;28;20026;-77
2023/07/15 09:19:28;;;;;;;4.70;2.20;;;36.50;50.90;;;;;;5103890;28;20039;-78
2023/07/15 09:22:06;;;;;;;4.00;1.90;;;36.40;49.80;;;;;;5099913;28;20043;-78
2023/07/15 09:24:33;;;;;;;4.63;2.10;;;36.50;50.60;;;;;;5096652;28;20073;-78
2023/07/15 09:27:02;;;;;;;5.28;2.00;;;36.40;50.10;;;;;;5095282;28;20039;-78
2023/07/15 09:29:28;;;;;;;5.38;1.95;;;36.60;51.30;;;;;;5096392;28;20030;-78
2023/07/15 09:31:54;;;;;;;5.28;1.95;;;36.80;49.60;;;;;;5104603;28;20028;-78
2023/07/15 09:34:19;;;;;;;4.95;2.10;;;36.30;49.70;;;;;;5099863;28;20030;-77
2023/07/15 09:36:45;;;;;;;5.07;2.03;;;35.30;49.90;;;;;;5102192;28;20436;-78
2023/07/15 09:39:13;;;;;;;4.88;2.00;;;34.90;49.60;;;;;;5103314;28;20425;-78
2023/07/15 09:41:39;;;;;;;4.18;2.08;;;34.90;49.20;;;;;;5101555;28;20152;-78
2023/07/15 09:44:04;;;;;;;3.97;2.10;;;34.80;50.00;;;;;;5110277;28;20027;-78
2023/07/15 09:46:31;;;;;;;5.75;2.03;;;34.90;49.70;;;;;;5102249;28;20042;-77
2023/07/15 09:49:00;;;;;;;3.55;1.58;;;36.00;49.30;;;;;;5105507;28;20070;-76
2023/07/15 09:51:26;;;;;;;5.47;2.17;;;36.20;47.90;;;;;;5107023;28;20030;-75
2023/07/15 09:53:56;;;;;;;4.82;2.08;;;35.80;49.30;;;;;;5108213;28;20435;-76
2023/07/15 09:56:34;;;;;;;4.78;1.80;;;36.30;48.30;;;;;;5115495;28;20032;-75
2023/07/15 09:59:16;;;;;;;5.70;2.00;;;36.90;46.40;;;;;;5110763;28;20369;-77
2023/07/15 10:01:47;;;;;;;4.68;2.00;;;37.70;48.60;;;;;;5107954;28;20024;-77
2023/07/15 10:04:32;;;;;;;5.07;2.20;;;37.50;47.20;;;;;;5096067;28;20422;-77
2023/07/15 10:07:00;;;;;;;6.15;2.25;;;36.90;46.90;;;;;;5103438;28;20062;-77
2023/07/15 10:09:26;;;;;;;3.33;1.67;;;37.10;47.20;;;;;;5106274;28;20114;-77
2023/07/15 10:11:54;;;;;;;3.78;1.83;;;37.40;47.10;;;;;;5107166;28;20052;-76
2023/07/15 10:14:21;;;;;;;8.55;1.90;;;37.30;46.10;;;;;;5105333;28;20035;-76
2023/07/15 10:17:10;;;;;;;4.15;1.83;;;37.30;45.50;;;;;;5099703;28;20053;-76
2023/07/15 10:19:43;;;;;;;4.18;1.75;;;37.80;48.00;;;;;;5096092;28;20041;-76
2023/07/15 10:22:12;;;;;;;3.35;1.75;;;37.50;46.20;;;;;;5105312;28;20035;-76
2023/07/15 10:24:43;;;;;;;4.25;1.98;;;37.30;46.60;;;;;;5107293;28;20023;-76
2023/07/15 10:27:10;;;;;;;3.72;1.77;;;37.20;46.40;;;;;;5115581;28;20032;-75
2023/07/15 10:29:40;;;;;;;3.45;1.67;;;36.70;46.30;;;;;;5114611;28;20525;-75
2023/07/15 10:32:13;;;;;;;4.38;1.80;;;36.40;47.30;;;;;;5111857;28;20032;-76
2023/07/15 10:34:47;;;;;;;4.30;1.90;;;36.50;49.30;;;;;;5105040;28;20060;-75
2023/07/15 10:37:16;;;;;;;6.28;2.00;;;36.90;48.80;;;;;;5104843;28;20094;-75
2023/07/15 10:39:42;;;;;;;4.80;1.98;;;37.60;45.80;;;;;;5109132;28;20023;-76
2023/07/15 10:42:14;;;;;;;5.65;1.60;;;37.70;46.30;;;;;;5111953;28;20029;-75
2023/07/15 10:44:53;;;;;;;4.07;2.05;;;38.00;45.90;;;;;;5099469;28;20024;-75
2023/07/15 10:47:19;;;;;;;3.90;1.63;;;38.70;47.00;;;;;;5107638;28;20088;-75
2023/07/15 10:49:45;;;;;;;3.88;1.83;;;39.00;45.90;;;;;;5105086;28;20425;-75
2023/07/15 10:52:11;;;;;;;4.18;1.70;;;38.30;45.70;;;;;;5115493;27;20023;-75
2023/07/15 10:54:38;;;;;;;4.95;1.65;;;38.20;47.70;;;;;;5114547;28;20431;-75
2023/07/15 10:57:11;;;;;;;4.50;1.98;;;38.80;46.00;;;;;;5102866;28;20024;-75
2023/07/15 10:59:39;;;;;;;5.78;1.83;;;38.20;45.40;;;;;;5112841;28;20024;-76
2023/07/15 11:02:05;;;;;;;4.38;1.77;;;37.50;46.10;;;;;;5107339;28;20027;-77
2023/07/15 11:04:32;;;;;;;5.90;2.10;;;37.70;48.10;;;;;;5119247;28;20050;-76
2023/07/15 11:07:05;;;;;;;5.32;2.20;;;38.30;47.50;;;;;;5113458;28;20023;-76
2023/07/15 11:09:31;;;;;;;4.75;2.20;;;38.50;46.80;;;;;;5117350;28;20027;-76
2023/07/15 11:11:57;;;;;;;5.68;1.92;;;38.00;46.90;;;;;;5111523;28;20027;-76
2023/07/15 11:14:29;;;;;;;5.40;1.90;;;38.00;46.10;;;;;;5102659;28;20024;-76
2023/07/15 11:16:57;;;;;;;5.88;2.28;;;37.90;45.90;;;;;;5109621;28;20117;-76
2023/07/15 11:19:23;;;;;;;5.20;2.70;;;38.00;46.20;;;;;;5108917;28;20038;-76
2023/07/15 11:21:51;;;;;;;3.30;1.90;;;38.30;45.50;;;;;;5099458;28;20325;-76
2023/07/15 11:24:18;;;;;;;4.70;1.90;;;38.10;45.30;;;;;;5106092;28;20031;-76
2023/07/15 11:26:44;;;;;;;4.22;1.92;;;37.70;46.10;;;;;;5109986;28;20020;-75
2023/07/15 11:29:21;;;;;;;4.00;2.10;;;36.80;47.40;;;;;;5109632;28;20395;-76
2023/07/15 11:31:49;;;;;;;4.07;1.67;;;36.20;48.00;;;;;;5104691;28;20026;-76
2023/07/15 11:34:18;;;;;;;4.32;1.70;;;35.70;45.80;;;;;;5115773;28;20312;-76
2023/07/15 11:36:45;;;;;;;5.90;1.80;;;35.70;47.40;;;;;;5116993;28;20055;-76
2023/07/15 11:39:12;;;;;;;4.13;1.70;;;36.10;47.30;;;;;;5119132;28;20027;-76
2023/07/15 11:41:38;;;;;;;3.50;1.60;;;35.80;46.00;;;;;;5119239;28;20051;-76
2023/07/15 11:44:13;;;;;;;4.05;1.63;;;36.10;45.00;;;;;;5119132;28;20023;-76
2023/07/15 11:46:40;;;;;;;3.15;1.50;;;36.80;45.80;;;;;;5117364;28;20362;-76
2023/07/15 11:49:07;;;;;;;3.00;1.60;;;37.10;45.00;;;;;;5118946;28;20307;-76
2023/07/15 11:51:35;;;;;;;2.75;1.30;;;36.90;45.00;;;;;;5116243;28;20047;-76
2023/07/15 11:54:01;;;;;;;5.18;1.83;;;37.30;44.90;;;;;;5118953;28;20102;-76
2023/07/15 11:56:43;;;;;;;3.25;1.60;;;38.00;44.20;;;;;;5118109;28;20104;-76
2023/07/15 11:59:12;;;;;;;5.32;1.80;;;38.40;42.80;;;;;;5117669;28;20031;-76
2023/07/15 12:01:39;;;;;;;3.40;1.63;;;38.20;42.60;;;;;;5118939;28;20020;-76
2023/07/15 12:04:16;;;;;;;4.07;2.00;;;37.90;44.60;;;;;;5113714;28;20031;-76
2023/07/15 12:06:55;;;;;;;3.15;1.52;;;38.10;44.90;;;;;;5105246;28;20089;-76
2023/07/15 12:09:22;;;;;;;3.25;1.63;;;38.90;44.50;;;;;;5097823;28;20032;-76
2023/07/15 12:11:49;;;;;;;2.22;1.20;;;39.10;43.90;;;;;;5098057;28;20039;-76
2023/07/15 12:14:16;;;;;;;3.38;1.50;;;39.60;42.90;;;;;;5098092;28;20031;-77
2023/07/15 12:16:43;;;;;;;3.30;1.33;;;40.20;42.20;;;;;;5112400;28;20372;-77
2023/07/15 12:19:13;;;;;;;2.40;1.20;;;40.80;40.50;;;;;;5118281;28;20023;-77
2023/07/15 12:21:40;;;;;;;4.88;1.70;;;40.90;41.80;;;;;;5116099;28;20015;-77
2023/07/15 12:24:06;;;;;;;3.35;1.48;;;40.10;41.20;;;;;;5118398;28;20096;-77
2023/07/15 12:26:31;;;;;;;4.78;1.40;;;39.30;41.50;;;;;;5108120;28;20028;-77
2023/07/15 12:28:57;;;;;;;5.93;1.55;;;39.20;42.60;;;;;;5097794;28;20036;-77
2023/07/15 12:31:23;;;;;;;5.15;1.80;;;39.20;42.60;;;;;;5097510;28;20031;-77
2023/07/15 12:33:51;;;;;;;2.70;1.40;;;38.70;43.20;;;;;;5109756;27;21516;-77
2023/07/15 12:36:18;;;;;;;3.47;1.40;;;38.10;42.00;;;;;;5108118;28;20519;-77
2023/07/15 12:38:44;;;;;;;3.97;1.50;;;38.30;42.90;;;;;;5116667;28;20039;-77
2023/07/15 12:41:11;;;;;;;2.38;1.20;;;38.90;42.80;;;;;;5110005;27;20085;-77
2023/07/15 12:43:38;;;;;;;3.30;1.40;;;38.50;41.60;;;;;;5097493;28;20066;-75
2023/07/15 12:46:04;;;;;;;3.38;1.30;;;38.90;43.50;;;;;;5103970;28;20058;-75